Terminal Aerodrome Forecast
Issued by NWS

Current Version | Previous Version | Graphics & Text | Print | Product List | Glossary Off
Versions: 1 2 3 4 5 6 7 8 9 10 11 12 13 14 15 16 17 18 19

178
FTUS41 KILN 300541
TAFLUK
TAF
KLUK 300541Z 3006/3106 12008KT P6SM BKN150
     FM301200 16009KT P6SM OVC090
     FM301700 18012G22KT P6SM VCSH BKN050
     FM310000 19010KT P6SM VCSH BKN060 OVC100
     FM310200 18010KT 5SM -TSRA BR SCT018 OVC035CB
     FM310500 22010KT 5SM -SHRA BR VCTS OVC025CB=

USA.gov is the U.S. government's official web portal to all federal, state and local government web resources and services.